sensor_id;sensor_type;location;lat;lon;timestamp;pressure;altitude;pressure_sealevel;temperature;humidity
69528;BME280;57136;51.986;4.468;2023-03-24T00:01:09;99725.47;;;11.69;100.00
69528;BME280;57136;51.986;4.468;2023-03-24T00:03:35;99714.16;;;11.68;100.00
69528;BME280;57136;51.986;4.468;2023-03-24T00:06:03;99721.78;;;11.79;100.00
69528;BME280;57136;51.986;4.468;2023-03-24T00:08:31;99719.38;;;11.70;100.00
69528;BME280;57136;51.986;4.468;2023-03-24T00:11:00;99719.28;;;11.75;100.00
69528;BME280;57136;51.986;4.468;2023-03-24T00:13:29;99713.75;;;11.90;100.00
69528;BME280;57136;51.986;4.468;2023-03-24T00:15:56;99700.66;;;11.93;100.00
69528;BME280;57136;51.986;4.468;2023-03-24T00:18:22;99704.25;;;11.86;100.00
69528;BME280;57136;51.986;4.468;2023-03-24T00:20:51;99703.19;;;11.98;100.00
69528;BME280;57136;51.986;4.468;2023-03-24T00:23:23;99703.06;;;12.06;100.00
69528;BME280;57136;51.986;4.468;2023-03-24T00:25:58;99702.13;;;12.08;100.00
69528;BME280;57136;51.986;4.468;2023-03-24T00:28:26;99689.88;;;12.12;100.00
69528;BME280;57136;51.986;4.468;2023-03-24T00:30:52;99691.34;;;12.25;100.00
69528;BME280;57136;51.986;4.468;2023-03-24T00:33:17;99692.00;;;12.35;100.00
69528;BME280;57136;51.986;4.468;2023-03-24T00:35:42;99685.94;;;12.35;100.00
69528;BME280;57136;51.986;4.468;2023-03-24T00:38:09;99665.44;;;12.14;100.00
69528;BME280;57136;51.986;4.468;2023-03-24T00:40:34;99682.72;;;12.61;100.00
69528;BME280;57136;51.986;4.468;2023-03-24T00:42:59;99679.69;;;12.40;100.00
69528;BME280;57136;51.986;4.468;2023-03-24T00:45:26;99669.19;;;12.42;100.00
69528;BME280;57136;51.986;4.468;2023-03-24T00:47:53;99669.56;;;12.26;100.00
69528;BME280;57136;51.986;4.468;2023-03-24T00:50:21;99668.72;;;12.26;100.00
69528;BME280;57136;51.986;4.468;2023-03-24T00:52:51;99671.03;;;12.38;100.00
69528;BME280;57136;51.986;4.468;2023-03-24T00:55:17;99661.19;;;12.10;100.00
69528;BME280;57136;51.986;4.468;2023-03-24T00:57:45;99661.06;;;12.17;100.00
69528;BME280;57136;51.986;4.468;2023-03-24T01:00:17;99654.22;;;12.11;100.00
69528;BME280;57136;51.986;4.468;2023-03-24T01:02:45;99645.81;;;11.95;100.00
69528;BME280;57136;51.986;4.468;2023-03-24T01:05:11;99653.44;;;12.06;100.00
69528;BME280;57136;51.986;4.468;2023-03-24T01:07:39;99650.91;;;12.03;100.00
69528;BME280;57136;51.986;4.468;2023-03-24T01:10:06;99647.34;;;12.07;100.00
69528;BME280;57136;51.986;4.468;2023-03-24T01:12:35;99645.69;;;12.01;100.00
69528;BME280;57136;51.986;4.468;2023-03-24T01:15:18;99642.44;;;11.90;100.00
69528;BME280;57136;51.986;4.468;2023-03-24T01:17:44;99655.06;;;12.11;100.00
69528;BME280;57136;51.986;4.468;2023-03-24T01:20:11;99660.19;;;12.16;100.00
69528;BME280;57136;51.986;4.468;2023-03-24T01:22:39;99658.81;;;11.96;100.00
69528;BME280;57136;51.986;4.468;2023-03-24T01:25:11;99660.53;;;11.97;100.00
69528;BME280;57136;51.986;4.468;2023-03-24T01:27:38;99661.22;;;12.09;100.00
69528;BME280;57136;51.986;4.468;2023-03-24T01:30:05;99652.38;;;12.14;100.00
69528;BME280;57136;51.986;4.468;2023-03-24T01:32:30;99657.50;;;12.21;100.00
69528;BME280;57136;51.986;4.468;2023-03-24T01:34:56;99676.19;;;12.01;100.00
69528;BME280;57136;51.986;4.468;2023-03-24T01:37:21;99674.47;;;11.98;100.00
69528;BME280;57136;51.986;4.468;2023-03-24T01:39:50;99692.56;;;12.07;100.00
69528;BME280;57136;51.986;4.468;2023-03-24T01:42:18;99695.41;;;11.95;100.00
69528;BME280;57136;51.986;4.468;2023-03-24T01:44:46;99706.69;;;11.95;100.00
69528;BME280;57136;51.986;4.468;2023-03-24T01:47:13;99722.53;;;11.86;100.00
69528;BME280;57136;51.986;4.468;2023-03-24T01:49:53;99727.13;;;11.75;100.00
69528;BME280;57136;51.986;4.468;2023-03-24T01:52:30;99722.00;;;11.70;100.00
69528;BME280;57136;51.986;4.468;2023-03-24T01:55:02;99742.09;;;11.63;100.00
69528;BME280;57136;51.986;4.468;2023-03-24T01:57:35;99734.53;;;11.48;100.00
69528;BME280;57136;51.986;4.468;2023-03-24T02:00:07;99764.88;;;11.53;100.00
69528;BME280;57136;51.986;4.468;2023-03-24T02:02:33;99764.44;;;11.28;100.00
69528;BME280;57136;51.986;4.468;2023-03-24T02:05:02;99761.03;;;11.23;100.00
69528;BME280;57136;51.986;4.468;2023-03-24T02:10:04;99764.84;;;11.00;100.00
69528;BME280;57136;51.986;4.468;2023-03-24T02:12:30;99779.56;;;11.03;100.00
69528;BME280;57136;51.986;4.468;2023-03-24T02:14:58;99783.19;;;10.92;100.00
69528;BME280;57136;51.986;4.468;2023-03-24T02:22:58;99808.69;;;10.70;100.00
69528;BME280;57136;51.986;4.468;2023-03-24T02:25:42;99828.69;;;10.67;100.00
69528;BME280;57136;51.986;4.468;2023-03-24T02:37:27;99816.00;;;10.40;100.00
69528;BME280;57136;51.986;4.468;2023-03-24T02:48:35;99840.53;;;10.13;100.00
69528;BME280;57136;51.986;4.468;2023-03-24T02:51:17;99851.97;;;9.99;100.00
69528;BME280;57136;51.986;4.468;2023-03-24T02:54:01;99851.22;;;9.86;100.00
69528;BME280;57136;51.986;4.468;2023-03-24T02:56:48;99858.97;;;9.88;100.00
69528;BME280;57136;51.986;4.468;2023-03-24T02:59:21;99858.03;;;9.97;100.00
69528;BME280;57136;51.986;4.468;2023-03-24T03:02:03;99880.50;;;10.07;100.00
69528;BME280;57136;51.986;4.468;2023-03-24T03:04:37;99883.19;;;9.99;100.00
69528;BME280;57136;51.986;4.468;2023-03-24T03:07:06;99879.81;;;9.85;100.00
69528;BME280;57136;51.986;4.468;2023-03-24T03:09:40;99873.91;;;9.64;100.00
69528;BME280;57136;51.986;4.468;2023-03-24T03:12:10;99891.31;;;9.61;100.00
69528;BME280;57136;51.986;4.468;2023-03-24T03:14:53;99886.03;;;9.68;100.00
69528;BME280;57136;51.986;4.468;2023-03-24T03:17:26;99888.59;;;9.74;100.00
69528;BME280;57136;51.986;4.468;2023-03-24T03:19:55;99885.19;;;9.66;100.00
69528;BME280;57136;51.986;4.468;2023-03-24T03:22:25;99881.63;;;9.77;100.00
69528;BME280;57136;51.986;4.468;2023-03-24T03:24:54;99893.69;;;9.87;100.00
69528;BME280;57136;51.986;4.468;2023-03-24T03:27:28;99898.06;;;9.83;100.00
69528;BME280;57136;51.986;4.468;2023-03-24T03:30:33;99908.47;;;9.82;100.00
69528;BME280;57136;51.986;4.468;2023-03-24T03:33:08;99901.53;;;9.82;100.00
69528;BME280;57136;51.986;4.468;2023-03-24T03:35:47;99919.72;;;9.87;100.00
69528;BME280;57136;51.986;4.468;2023-03-24T03:38:24;99908.47;;;9.86;100.00
69528;BME280;57136;51.986;4.468;2023-03-24T03:40:55;99910.94;;;10.03;100.00
69528;BME280;57136;51.986;4.468;2023-03-24T03:43:24;99907.47;;;10.00;100.00
69528;BME280;57136;51.986;4.468;2023-03-24T03:45:50;99913.59;;;9.94;100.00
69528;BME280;57136;51.986;4.468;2023-03-24T03:48:16;99924.03;;;9.88;100.00
69528;BME280;57136;51.986;4.468;2023-03-24T03:50:42;99909.25;;;9.93;100.00
69528;BME280;57136;51.986;4.468;2023-03-24T03:53:08;99906.63;;;9.96;100.00
69528;BME280;57136;51.986;4.468;2023-03-24T03:55:34;99915.31;;;9.98;100.00
69528;BME280;57136;51.986;4.468;2023-03-24T03:58:02;99914.44;;;9.95;100.00
69528;BME280;57136;51.986;4.468;2023-03-24T04:00:27;99910.06;;;10.00;100.00
69528;BME280;57136;51.986;4.468;2023-03-24T04:05:47;99931.84;;;9.89;100.00
69528;BME280;57136;51.986;4.468;2023-03-24T04:08:47;99928.50;;;9.72;100.00
69528;BME280;57136;51.986;4.468;2023-03-24T04:11:39;99929.44;;;9.62;100.00
69528;BME280;57136;51.986;4.468;2023-03-24T04:14:23;99938.81;;;9.83;100.00
69528;BME280;57136;51.986;4.468;2023-03-24T04:17:00;99938.19;;;9.48;100.00
69528;BME280;57136;51.986;4.468;2023-03-24T04:25:19;99950.28;;;9.55;100.00
69528;BME280;57136;51.986;4.468;2023-03-24T04:27:56;99951.22;;;9.43;100.00
69528;BME280;57136;51.986;4.468;2023-03-24T04:33:10;99962.50;;;9.42;100.00
69528;BME280;57136;51.986;4.468;2023-03-24T04:35:45;99959.84;;;9.50;100.00
69528;BME280;57136;51.986;4.468;2023-03-24T04:38:16;99970.28;;;9.41;100.00
69528;BME280;57136;51.986;4.468;2023-03-24T04:40:48;99975.50;;;9.35;100.00
69528;BME280;57136;51.986;4.468;2023-03-24T04:43:17;99975.53;;;9.33;100.00
69528;BME280;57136;51.986;4.468;2023-03-24T04:45:44;99979.06;;;9.20;100.00
69528;BME280;57136;51.986;4.468;2023-03-24T04:48:15;99979.00;;;9.34;100.00
69528;BME280;57136;51.986;4.468;2023-03-24T04:50:43;99992.00;;;9.34;100.00
69528;BME280;57136;51.986;4.468;2023-03-24T04:53:12;99993.66;;;9.50;100.00
69528;BME280;57136;51.986;4.468;2023-03-24T04:58:20;99993.69;;;9.38;100.00
69528;BME280;57136;51.986;4.468;2023-03-24T05:00:46;99991.03;;;9.49;100.00
69528;BME280;57136;51.986;4.468;2023-03-24T05:03:14;99992.81;;;9.47;100.00
69528;BME280;57136;51.986;4.468;2023-03-24T05:05:43;99990.22;;;9.45;100.00
69528;BME280;57136;51.986;4.468;2023-03-24T05:08:10;99984.06;;;9.57;100.00
69528;BME280;57136;51.986;4.468;2023-03-24T05:10:36;99985.81;;;9.55;100.00
69528;BME280;57136;51.986;4.468;2023-03-24T05:13:03;100006.69;;;9.44;100.00
69528;BME280;57136;51.986;4.468;2023-03-24T05:15:29;100005.78;;;9.51;100.00
69528;BME280;57136;51.986;4.468;2023-03-24T05:17:54;100013.50;;;9.64;100.00
69528;BME280;57136;51.986;4.468;2023-03-24T05:20:21;100016.16;;;9.59;100.00
69528;BME280;57136;51.986;4.468;2023-03-24T05:22:47;100022.22;;;9.55;100.00
69528;BME280;57136;51.986;4.468;2023-03-24T05:25:14;100024.84;;;9.52;100.00
69528;BME280;57136;51.986;4.468;2023-03-24T05:27:40;100024.81;;;9.61;100.00
69528;BME280;57136;51.986;4.468;2023-03-24T05:30:06;100029.13;;;9.68;100.00
69528;BME280;57136;51.986;4.468;2023-03-24T05:32:32;100019.59;;;9.67;100.00
69528;BME280;57136;51.986;4.468;2023-03-24T05:34:58;100014.31;;;9.77;100.00
69528;BME280;57136;51.986;4.468;2023-03-24T05:37:23;100022.13;;;9.78;100.00
69528;BME280;57136;51.986;4.468;2023-03-24T05:39:49;100032.53;;;9.81;100.00
69528;BME280;57136;51.986;4.468;2023-03-24T05:42:15;100032.53;;;9.78;100.00
69528;BME280;57136;51.986;4.468;2023-03-24T05:44:41;100035.97;;;9.83;100.00
69528;BME280;57136;51.986;4.468;2023-03-24T05:47:06;100040.34;;;9.81;100.00
69528;BME280;57136;51.986;4.468;2023-03-24T05:49:32;100047.19;;;9.95;100.00
69528;BME280;57136;51.986;4.468;2023-03-24T05:51:57;100048.94;;;9.94;100.00
69528;BME280;57136;51.986;4.468;2023-03-24T05:54:24;100055.00;;;9.96;100.00
69528;BME280;57136;51.986;4.468;2023-03-24T05:56:49;100046.31;;;9.96;100.00
69528;BME280;57136;51.986;4.468;2023-03-24T05:59:16;100048.06;;;9.92;100.00
69528;BME280;57136;51.986;4.468;2023-03-24T06:01:41;100048.91;;;9.97;100.00
69528;BME280;57136;51.986;4.468;2023-03-24T06:04:07;100059.31;;;9.96;100.00
69528;BME280;57136;51.986;4.468;2023-03-24T06:06:33;100061.88;;;10.05;100.00
69528;BME280;57136;51.986;4.468;2023-03-24T06:08:58;100060.13;;;10.07;100.00
69528;BME280;57136;51.986;4.468;2023-03-24T06:11:27;100067.09;;;10.02;100.00
69528;BME280;57136;51.986;4.468;2023-03-24T06:13:53;100067.94;;;10.05;100.00
69528;BME280;57136;51.986;4.468;2023-03-24T06:16:24;100074.03;;;10.04;100.00
69528;BME280;57136;51.986;4.468;2023-03-24T06:18:50;100059.34;;;9.97;100.00
69528;BME280;57136;51.986;4.468;2023-03-24T06:21:17;100074.00;;;10.08;100.00
69528;BME280;57136;51.986;4.468;2023-03-24T06:23:43;100068.03;;;9.90;100.00
69528;BME280;57136;51.986;4.468;2023-03-24T06:26:10;100076.69;;;9.95;100.00
69528;BME280;57136;51.986;4.468;2023-03-24T06:28:37;100095.75;;;10.02;100.00
69528;BME280;57136;51.986;4.468;2023-03-24T06:31:04;100087.09;;;9.97;100.00
69528;BME280;57136;51.986;4.468;2023-03-24T06:33:30;100086.22;;;9.92;100.00
69528;BME280;57136;51.986;4.468;2023-03-24T06:35:55;100107.94;;;9.95;100.00
69528;BME280;57136;51.986;4.468;2023-03-24T06:38:21;100089.56;;;10.18;100.00
69528;BME280;57136;51.986;4.468;2023-03-24T06:40:46;100098.16;;;10.33;100.00
69528;BME280;57136;51.986;4.468;2023-03-24T06:43:12;100100.97;;;9.96;100.00
69528;BME280;57136;51.986;4.468;2023-03-24T06:45:37;100108.66;;;10.19;100.00
69528;BME280;57136;51.986;4.468;2023-03-24T06:48:04;100105.16;;;10.29;100.00
69528;BME280;57136;51.986;4.468;2023-03-24T06:50:29;100097.47;;;10.06;100.00
69528;BME280;57136;51.986;4.468;2023-03-24T06:52:59;100104.34;;;10.12;100.00
69528;BME280;57136;51.986;4.468;2023-03-24T06:55:24;100116.50;;;10.14;100.00
69528;BME280;57136;51.986;4.468;2023-03-24T06:57:50;100104.22;;;10.35;100.00
69528;BME280;57136;51.986;4.468;2023-03-24T07:00:15;100116.38;;;10.45;100.00
69528;BME280;57136;51.986;4.468;2023-03-24T07:02:41;100136.22;;;10.62;100.00
69528;BME280;57136;51.986;4.468;2023-03-24T07:05:07;100128.41;;;10.59;100.00
69528;BME280;57136;51.986;4.468;2023-03-24T07:07:34;100133.53;;;10.70;100.00
69528;BME280;57136;51.986;4.468;2023-03-24T07:10:00;100133.47;;;10.81;100.00
69528;BME280;57136;51.986;4.468;2023-03-24T07:12:26;100136.78;;;11.00;100.00
69528;BME280;57136;51.986;4.468;2023-03-24T07:14:51;100124.78;;;10.80;100.00
69528;BME280;57136;51.986;4.468;2023-03-24T07:17:17;100152.38;;;11.06;100.00
69528;BME280;57136;51.986;4.468;2023-03-24T07:19:42;100151.47;;;11.13;100.00
69528;BME280;57136;51.986;4.468;2023-03-24T07:22:10;100153.94;;;11.27;100.00
69528;BME280;57136;51.986;4.468;2023-03-24T07:24:35;100156.00;;;10.88;100.00
69528;BME280;57136;51.986;4.468;2023-03-24T07:27:01;100145.56;;;10.91;100.00
69528;BME280;57136;51.986;4.468;2023-03-24T07:29:27;100143.50;;;11.27;100.00
69528;BME280;57136;51.986;4.468;2023-03-24T07:31:52;100149.91;;;10.87;100.00
69528;BME280;57136;51.986;4.468;2023-03-24T07:34:19;100160.19;;;11.04;100.00
69528;BME280;57136;51.986;4.468;2023-03-24T07:36:44;100159.13;;;11.29;100.00
69528;BME280;57136;51.986;4.468;2023-03-24T07:39:10;100154.53;;;11.52;100.00
69528;BME280;57136;51.986;4.468;2023-03-24T07:41:35;100166.72;;;11.55;100.00
69528;BME280;57136;51.986;4.468;2023-03-24T07:44:01;100174.69;;;11.36;100.00
69528;BME280;57136;51.986;4.468;2023-03-24T07:46:26;100168.72;;;11.23;100.00
69528;BME280;57136;51.986;4.468;2023-03-24T07:48:52;100171.25;;;11.36;100.00
69528;BME280;57136;51.986;4.468;2023-03-24T07:51:17;100171.13;;;11.47;100.00
69528;BME280;57136;51.986;4.468;2023-03-24T07:53:44;100179.16;;;11.25;100.00
69528;BME280;57136;51.986;4.468;2023-03-24T07:56:12;100178.19;;;11.35;100.00
69528;BME280;57136;51.986;4.468;2023-03-24T07:58:38;100181.47;;;11.56;100.00
69528;BME280;57136;51.986;4.468;2023-03-24T08:01:06;100170.28;;;11.45;100.00
69528;BME280;57136;51.986;4.468;2023-03-24T08:03:31;100169.16;;;11.69;100.00
69528;BME280;57136;51.986;4.468;2023-03-24T08:05:57;100185.94;;;11.45;100.00
69528;BME280;57136;51.986;4.468;2023-03-24T08:08:24;100195.13;;;11.83;100.00
69528;BME280;57136;51.986;4.468;2023-03-24T08:10:49;100186.44;;;11.79;100.00
69528;BME280;57136;51.986;4.468;2023-03-24T08:13:15;100202.88;;;11.88;100.00
69528;BME280;57136;51.986;4.468;2023-03-24T08:15:41;100194.38;;;11.68;100.00
69528;BME280;57136;51.986;4.468;2023-03-24T08:18:06;100195.84;;;11.94;100.00
69528;BME280;57136;51.986;4.468;2023-03-24T08:20:32;100189.97;;;11.75;100.00
69528;BME280;57136;51.986;4.468;2023-03-24T08:22:58;100206.72;;;11.52;100.00
69528;BME280;57136;51.986;4.468;2023-03-24T08:25:25;100209.13;;;11.76;100.00
69528;BME280;57136;51.986;4.468;2023-03-24T08:27:52;100202.94;;;11.83;100.00
69528;BME280;57136;51.986;4.468;2023-03-24T08:30:19;100192.44;;;11.88;100.00
69528;BME280;57136;51.986;4.468;2023-03-24T08:32:48;100196.72;;;11.93;99.99
69528;BME280;57136;51.986;4.468;2023-03-24T08:35:16;100206.13;;;12.11;98.12
69528;BME280;57136;51.986;4.468;2023-03-24T08:37:43;100211.47;;;11.99;97.00
69528;BME280;57136;51.986;4.468;2023-03-24T08:40:14;100208.03;;;11.97;95.93
69528;BME280;57136;51.986;4.468;2023-03-24T08:42:42;100208.81;;;12.07;96.03
69528;BME280;57136;51.986;4.468;2023-03-24T08:45:10;100222.50;;;12.24;95.97
69528;BME280;57136;51.986;4.468;2023-03-24T08:47:36;100222.66;;;12.13;96.39
69528;BME280;57136;51.986;4.468;2023-03-24T08:50:03;100228.66;;;12.22;93.34
69528;BME280;57136;51.986;4.468;2023-03-24T08:52:29;100231.13;;;12.31;95.18
69528;BME280;57136;51.986;4.468;2023-03-24T08:54:54;100230.41;;;12.18;93.69
69528;BME280;57136;51.986;4.468;2023-03-24T08:57:20;100248.91;;;11.96;95.75
69528;BME280;57136;51.986;4.468;2023-03-24T08:59:46;100246.34;;;11.95;95.04
69528;BME280;57136;51.986;4.468;2023-03-24T09:02:12;100243.03;;;11.74;95.63
69528;BME280;57136;51.986;4.468;2023-03-24T09:04:38;100245.84;;;12.38;94.17
69528;BME280;57136;51.986;4.468;2023-03-24T09:07:04;100257.47;;;12.12;91.32
69528;BME280;57136;51.986;4.468;2023-03-24T09:09:30;100265.16;;;12.26;93.18
69528;BME280;57136;51.986;4.468;2023-03-24T09:11:57;100244.28;;;12.23;91.02
69528;BME280;57136;51.986;4.468;2023-03-24T09:14:22;100257.56;;;12.05;91.57
69528;BME280;57136;51.986;4.468;2023-03-24T09:16:48;100251.41;;;12.12;90.88
69528;BME280;57136;51.986;4.468;2023-03-24T09:19:15;100264.03;;;12.46;90.23
69528;BME280;57136;51.986;4.468;2023-03-24T09:21:43;100260.19;;;12.75;89.44
69528;BME280;57136;51.986;4.468;2023-03-24T09:24:10;100263.91;;;12.57;89.61
69528;BME280;57136;51.986;4.468;2023-03-24T09:26:35;100259.28;;;12.78;89.35
69528;BME280;57136;51.986;4.468;2023-03-24T09:29:01;100265.31;;;13.41;87.67
69528;BME280;57136;51.986;4.468;2023-03-24T09:31:27;100272.28;;;13.93;85.76
69528;BME280;57136;51.986;4.468;2023-03-24T09:33:52;100274.16;;;14.31;82.81
69528;BME280;57136;51.986;4.468;2023-03-24T09:36:18;100269.06;;;14.24;82.43
69528;BME280;57136;51.986;4.468;2023-03-24T09:38:43;100267.47;;;14.60;80.21
69528;BME280;57136;51.986;4.468;2023-03-24T09:41:24;100279.56;;;14.23;81.88
69528;BME280;57136;51.986;4.468;2023-03-24T09:43:59;100269.09;;;14.23;79.65
69528;BME280;57136;51.986;4.468;2023-03-24T09:46:35;100282.31;;;13.13;82.95
69528;BME280;57136;51.986;4.468;2023-03-24T09:49:03;100273.09;;;12.86;83.82
69528;BME280;57136;51.986;4.468;2023-03-24T09:51:32;100281.59;;;13.02;86.32
69528;BME280;57136;51.986;4.468;2023-03-24T09:54:25;100280.78;;;12.98;85.80
69528;BME280;57136;51.986;4.468;2023-03-24T09:56:53;100278.44;;;13.38;85.69
69528;BME280;57136;51.986;4.468;2023-03-24T09:59:20;100282.03;;;13.85;84.13
69528;BME280;57136;51.986;4.468;2023-03-24T10:01:48;100268.13;;;13.27;82.48
69528;BME280;57136;51.986;4.468;2023-03-24T10:04:19;100289.00;;;13.30;84.06
69528;BME280;57136;51.986;4.468;2023-03-24T10:06:46;100278.03;;;13.08;83.10
69528;BME280;57136;51.986;4.468;2023-03-24T10:09:31;100283.13;;;13.72;80.42
69528;BME280;57136;51.986;4.468;2023-03-24T10:17:16;100283.06;;;12.57;85.49
69528;BME280;57136;51.986;4.468;2023-03-24T10:20:08;100287.34;;;12.63;85.53
69528;BME280;57136;51.986;4.468;2023-03-24T10:22:51;100293.69;;;13.67;82.99
69528;BME280;57136;51.986;4.468;2023-03-24T10:28:24;100284.09;;;14.59;76.49
69528;BME280;57136;51.986;4.468;2023-03-24T10:30:53;100274.22;;;14.72;76.39
69528;BME280;57136;51.986;4.468;2023-03-24T10:33:20;100282.09;;;14.72;77.20
69528;BME280;57136;51.986;4.468;2023-03-24T10:36:04;100289.59;;;14.90;79.10
69528;BME280;57136;51.986;4.468;2023-03-24T10:38:30;100286.06;;;14.91;76.26
69528;BME280;57136;51.986;4.468;2023-03-24T10:40:56;100281.97;;;14.78;76.14
69528;BME280;57136;51.986;4.468;2023-03-24T10:43:24;100294.66;;;14.10;78.36
69528;BME280;57136;51.986;4.468;2023-03-24T10:45:52;100298.44;;;14.42;78.36
69528;BME280;57136;51.986;4.468;2023-03-24T10:51:18;100260.66;;;13.60;81.01
69528;BME280;57136;51.986;4.468;2023-03-24T10:53:45;100280.59;;;13.11;82.97
69528;BME280;57136;51.986;4.468;2023-03-24T10:56:35;100266.78;;;13.02;82.79
69528;BME280;57136;51.986;4.468;2023-03-24T10:59:02;100284.91;;;13.13;83.65
69528;BME280;57136;51.986;4.468;2023-03-24T11:01:28;100289.22;;;13.16;84.33
69528;BME280;57136;51.986;4.468;2023-03-24T11:04:04;100284.84;;;13.18;83.02
69528;BME280;57136;51.986;4.468;2023-03-24T11:06:31;100297.38;;;13.55;82.03
69528;BME280;57136;51.986;4.468;2023-03-24T11:09:19;100288.31;;;13.76;80.32
69528;BME280;57136;51.986;4.468;2023-03-24T11:11:45;100299.50;;;13.30;81.73
69528;BME280;57136;51.986;4.468;2023-03-24T11:14:24;100289.19;;;13.19;82.07
69528;BME280;57136;51.986;4.468;2023-03-24T11:16:50;100288.34;;;13.18;83.48
69528;BME280;57136;51.986;4.468;2023-03-24T11:19:19;100291.25;;;13.56;83.06
69528;BME280;57136;51.986;4.468;2023-03-24T11:21:46;100305.66;;;13.81;79.75
69528;BME280;57136;51.986;4.468;2023-03-24T11:24:15;100295.84;;;13.39;81.04
69528;BME280;57136;51.986;4.468;2023-03-24T11:27:05;100308.38;;;13.76;82.39
69528;BME280;57136;51.986;4.468;2023-03-24T11:29:32;100293.44;;;13.26;81.52
69528;BME280;57136;51.986;4.468;2023-03-24T11:31:59;100319.97;;;13.61;81.20
69528;BME280;57136;51.986;4.468;2023-03-24T11:37:05;100303.13;;;13.76;79.83
69528;BME280;57136;51.986;4.468;2023-03-24T11:39:33;100315.84;;;13.98;80.74
69528;BME280;57136;51.986;4.468;2023-03-24T11:49:33;100293.28;;;13.90;79.93
69528;BME280;57136;51.986;4.468;2023-03-24T11:52:04;100289.19;;;13.74;79.30
69528;BME280;57136;51.986;4.468;2023-03-24T11:54:35;100305.31;;;14.01;80.22
69528;BME280;57136;51.986;4.468;2023-03-24T11:57:04;100312.78;;;13.74;81.87
69528;BME280;57136;51.986;4.468;2023-03-24T11:59:36;100312.97;;;13.63;82.57
69528;BME280;57136;51.986;4.468;2023-03-24T12:10:51;100306.63;;;13.76;83.66
69528;BME280;57136;51.986;4.468;2023-03-24T12:13:34;100293.56;;;13.18;83.61
69528;BME280;57136;51.986;4.468;2023-03-24T12:16:39;100298.09;;;13.09;84.51
69528;BME280;57136;51.986;4.468;2023-03-24T12:19:25;100284.69;;;12.68;84.37
69528;BME280;57136;51.986;4.468;2023-03-24T12:24:42;100291.34;;;12.91;83.59
69528;BME280;57136;51.986;4.468;2023-03-24T12:27:32;100297.13;;;13.13;81.82
69528;BME280;57136;51.986;4.468;2023-03-24T12:30:09;100288.34;;;13.18;82.75
69528;BME280;57136;51.986;4.468;2023-03-24T12:33:03;100280.13;;;13.43;81.25
69528;BME280;57136;51.986;4.468;2023-03-24T12:38:35;100271.88;;;13.10;80.77
69528;BME280;57136;51.986;4.468;2023-03-24T12:55:32;100291.84;;;13.16;82.97
69528;BME280;57136;51.986;4.468;2023-03-24T12:58:36;100276.41;;;13.00;83.02
69528;BME280;57136;51.986;4.468;2023-03-24T13:03:40;100274.47;;;13.13;81.73
69528;BME280;57136;51.986;4.468;2023-03-24T13:06:14;100277.19;;;13.04;83.06
69528;BME280;57136;51.986;4.468;2023-03-24T13:08:41;100266.25;;;13.35;83.50
69528;BME280;57136;51.986;4.468;2023-03-24T13:11:11;100261.81;;;13.42;80.97
69528;BME280;57136;51.986;4.468;2023-03-24T13:13:41;100267.63;;;14.08;78.76
69528;BME280;57136;51.986;4.468;2023-03-24T13:16:13;100273.38;;;14.27;75.47
69528;BME280;57136;51.986;4.468;2023-03-24T13:18:51;100272.44;;;14.30;71.42
69528;BME280;57136;51.986;4.468;2023-03-24T13:21:19;100282.28;;;15.03;69.61
69528;BME280;57136;51.986;4.468;2023-03-24T13:26:41;100267.38;;;15.41;67.86
69528;BME280;57136;51.986;4.468;2023-03-24T13:34:34;100266.66;;;13.65;75.60
69528;BME280;57136;51.986;4.468;2023-03-24T13:37:05;100257.47;;;13.91;76.48
69528;BME280;57136;51.986;4.468;2023-03-24T13:39:33;100256.16;;;14.14;76.90
69528;BME280;57136;51.986;4.468;2023-03-24T13:42:00;100259.16;;;13.95;78.84
69528;BME280;57136;51.986;4.468;2023-03-24T13:44:35;100243.84;;;13.73;78.59
69528;BME280;57136;51.986;4.468;2023-03-24T13:47:13;100258.66;;;13.73;77.98
69528;BME280;57136;51.986;4.468;2023-03-24T13:49:52;100250.16;;;14.51;75.75
69528;BME280;57136;51.986;4.468;2023-03-24T13:52:31;100255.16;;;14.21;76.09
69528;BME280;57136;51.986;4.468;2023-03-24T13:55:01;100249.78;;;13.82;78.23
69528;BME280;57136;51.986;4.468;2023-03-24T13:57:32;100251.28;;;13.45;79.28
69528;BME280;57136;51.986;4.468;2023-03-24T13:59:59;100238.50;;;13.25;79.89
69528;BME280;57136;51.986;4.468;2023-03-24T14:02:45;100243.09;;;13.10;79.66
69528;BME280;57136;51.986;4.468;2023-03-24T14:08:09;100233.28;;;13.78;75.83
69528;BME280;57136;51.986;4.468;2023-03-24T14:13:18;100230.94;;;14.52;74.78
69528;BME280;57136;51.986;4.468;2023-03-24T14:23:46;100232.06;;;14.38;71.09
69528;BME280;57136;51.986;4.468;2023-03-24T14:28:46;100241.22;;;13.72;75.95
69528;BME280;57136;51.986;4.468;2023-03-24T14:34:07;100230.16;;;13.57;77.27
69528;BME280;57136;51.986;4.468;2023-03-24T14:36:37;100235.53;;;13.48;77.87
69528;BME280;57136;51.986;4.468;2023-03-24T14:39:10;100231.59;;;13.75;75.75
69528;BME280;57136;51.986;4.468;2023-03-24T14:41:40;100232.91;;;13.97;75.24
69528;BME280;57136;51.986;4.468;2023-03-24T14:44:06;100242.09;;;14.18;74.27
69528;BME280;57136;51.986;4.468;2023-03-24T14:54:05;100228.84;;;14.66;71.45
69528;BME280;57136;51.986;4.468;2023-03-24T14:56:37;100232.72;;;14.50;71.36
69528;BME280;57136;51.986;4.468;2023-03-24T14:59:35;100230.88;;;14.55;70.88
69528;BME280;57136;51.986;4.468;2023-03-24T15:04:40;100232.53;;;14.59;70.46
69528;BME280;57136;51.986;4.468;2023-03-24T15:07:10;100233.44;;;14.57;69.18
69528;BME280;57136;51.986;4.468;2023-03-24T15:09:47;100224.63;;;15.00;69.55
69528;BME280;57136;51.986;4.468;2023-03-24T15:12:14;100224.47;;;14.67;70.80
69528;BME280;57136;51.986;4.468;2023-03-24T15:14:42;100221.09;;;14.62;68.86